Ana Sayfa
METAR-TAF:

METAR-TAF

Havaalanları :

Limni, Yunanistan

Enlem: 39-55N, Boylam: 025-14E, yükseklik: 5 m

Güncel hava durumu gözlemi

Rapor saat 14:50 UTC de 1 saat ve 12 dakika önce yapıldı.
Rüzgar güneydan 4 kt
Sıcaklık 16°C
Nem 63%
Basınç 1015 hPa
Görüş mesafesi 10 km veya daha fazla
1800 ft yükseklikte az bulutlu

METAR: LGLM 241450Z 19004KT 9999 FEW018 16/09 Q1015

Saat: 18:02 (16:02 UTC)

Tahmin

Rapor saat 14:00 UTC de 2 saat ve 2 dakika önce yapıldı.
Ayın 24'si saat 15 UTC'den ayın 24'si saat 24 UTC'ye kadar geçerli Tahmin
Rüzgar güneybatıdan 8 kt
Görüş mesafesi 10 km veya daha fazla
2500 ft yükseklikte az bulutlu
Dönüşüyor
ayın 24'si saat 19 UTC'den ayın 24'si saat 21 UTC'ye kadar
Rüzgar kuzeydoğudan 15 kt

TAF: LGLM 241400Z 2415/2424 22008KT 9999 FEW025 BECMG 2419/2421 05015KT

4.000'den fazla havaalanı için hava durumu gözlemleri ve tahminleri (METAR ve TAF raporları).

Kullanılabilir istasyonlar harita üzerinde sarı ve kırmızı noktalarla gösterilir.

İstasyonun adını görmek için fareyi noktanın üzerinde gezdirin.

Sonrasında hava gözlem ve tahminlerini görmek için tıklayın.

Haritayı değiştirmek için: yaklaştırmak için siyah artı işaretli yeşil düğmeye ve uzaklaştırmak için de eksi işaretli düğmeye hızla tıklayın; bitişik haritalar için yeşil okları kullanın.


METAR-TAF: